Time,TemperatureF,DewpointF,PressureIn,WindDirection,WindDirectionDegrees,WindSpeedMPH,WindSpeedGustMPH,Humidity,HourlyPrecipIn,Conditions,Clouds,dailyrainin,SoftwareType,DateUTC
2013-10-18 00:09:00,37.1,31.0,32.29,East,96,2.0,5.0,79,0.00,,,0.00,weatherlink.com 1.10,2013-10-18 06:09:00,
2013-10-18 00:24:00,36.8,31.0,32.29,East,97,1.0,3.0,79,0.00,,,0.00,weatherlink.com 1.10,2013-10-18 06:24:00,
2013-10-18 00:39:00,36.2,30.0,32.29,East,99,1.0,2.0,79,0.00,,,0.00,weatherlink.com 1.10,2013-10-18 06:39:00,
2013-10-18 00:54:00,35.9,30.0,32.30,East,92,2.0,3.0,79,0.00,,,0.00,weatherlink.com 1.10,2013-10-18 06:54:00,
2013-10-18 01:09:00,36.0,30.0,32.30,East,92,0.0,3.0,78,0.00,,,0.00,weatherlink.com 1.10,2013-10-18 07:09:00,
2013-10-18 01:24:00,35.8,30.0,32.30,East,92,0.0,3.0,79,0.00,,,0.00,weatherlink.com 1.10,2013-10-18 07:24:00,
2013-10-18 01:40:00,35.9,30.0,32.31,East,92,0.0,1.0,79,0.00,,,0.00,weatherlink.com 1.10,2013-10-18 07:40:00,
2013-10-18 01:55:00,35.6,30.0,32.31,East,92,0.0,0.0,81,0.00,,,0.00,weatherlink.com 1.10,2013-10-18 07:55:00,
2013-10-18 02:10:00,35.0,31.0,32.31,East,92,0.0,2.0,84,0.00,,,0.00,weatherlink.com 1.10,2013-10-18 08:10:00,
2013-10-18 02:25:00,34.5,30.0,32.31,East,92,1.0,2.0,84,0.00,,,0.00,weatherlink.com 1.10,2013-10-18 08:25:00,
2013-10-18 02:40:00,34.4,30.0,32.31,East,92,1.0,2.0,85,0.00,,,0.00,weatherlink.com 1.10,2013-10-18 08:40:00,
2013-10-18 02:55:00,34.3,30.0,32.31,East,92,2.0,3.0,85,0.00,,,0.00,weatherlink.com 1.10,2013-10-18 08:55:00,
2013-10-18 03:10:00,33.8,30.0,32.31,East,92,3.0,5.0,85,0.00,,,0.00,weatherlink.com 1.10,2013-10-18 09:10:00,
2013-10-18 03:25:00,33.4,29.0,32.31,ENE,74,3.0,5.0,85,0.00,,,0.00,weatherlink.com 1.10,2013-10-18 09:25:00,
2013-10-18 03:40:00,33.4,29.0,32.31,East,92,6.0,6.0,85,0.00,,,0.00,weatherlink.com 1.10,2013-10-18 09:40:00,
2013-10-18 03:55:00,33.2,29.0,32.31,East,94,2.0,6.0,85,0.00,,,0.00,weatherlink.com 1.10,2013-10-18 09:55:00,
2013-10-18 04:10:00,33.3,30.0,32.31,ESE,118,4.0,8.0,86,0.00,,,0.00,weatherlink.com 1.10,2013-10-18 10:10:00,
2013-10-18 04:25:00,33.5,30.0,32.32,ESE,111,4.0,8.0,85,0.00,,,0.00,weatherlink.com 1.10,2013-10-18 10:25:00,
2013-10-18 04:40:00,33.1,29.0,32.32,ENE,68,0.0,7.0,85,0.00,,,0.00,weatherlink.com 1.10,2013-10-18 10:40:00,
2013-10-18 04:55:00,33.3,29.0,32.33,ESE,112,2.0,7.0,84,0.00,,,0.00,weatherlink.com 1.10,2013-10-18 10:55:00,
2013-10-18 05:10:00,33.6,29.0,32.33,East,96,5.0,7.0,83,0.00,,,0.00,weatherlink.com 1.10,2013-10-18 11:10:00,
2013-10-18 05:25:00,33.9,29.0,32.33,East,87,2.0,7.0,83,0.00,,,0.00,weatherlink.com 1.10,2013-10-18 11:25:00,
2013-10-18 05:40:00,33.7,29.0,32.34,ESE,121,3.0,7.0,83,0.00,,,0.00,weatherlink.com 1.10,2013-10-18 11:40:00,
2013-10-18 05:55:00,33.8,29.0,32.34,East,94,3.0,9.0,82,0.00,,,0.00,weatherlink.com 1.10,2013-10-18 11:55:00,
2013-10-18 06:10:00,33.7,29.0,32.34,East,92,3.0,7.0,82,0.00,,,0.00,weatherlink.com 1.10,2013-10-18 12:10:00,
2013-10-18 06:25:00,33.7,29.0,32.34,East,98,2.0,7.0,82,0.00,,,0.00,weatherlink.com 1.10,2013-10-18 12:25:00,
2013-10-18 06:40:00,33.1,29.0,32.34,ESE,103,2.0,5.0,83,0.00,,,0.00,weatherlink.com 1.10,2013-10-18 12:40:00,
2013-10-18 06:55:00,32.7,29.0,32.34,East,101,3.0,3.0,85,0.00,,,0.00,weatherlink.com 1.10,2013-10-18 12:55:00,
2013-10-18 07:10:00,33.5,29.0,32.34,SE,131,3.0,5.0,82,0.00,,,0.00,weatherlink.com 1.10,2013-10-18 13:10:00,
2013-10-18 07:25:00,33.4,29.0,32.34,ESE,121,0.0,1.0,82,0.00,,,0.00,weatherlink.com 1.10,2013-10-18 13:25:00,
2013-10-18 07:40:00,32.6,27.0,32.34,South,182,0.0,1.0,81,0.00,,,0.00,weatherlink.com 1.10,2013-10-18 13:40:00,
2013-10-18 07:55:00,31.9,27.0,32.34,WNW,283,0.0,2.0,82,0.00,,,0.00,weatherlink.com 1.10,2013-10-18 13:55:00,
2013-10-18 08:10:00,31.4,27.0,32.34,NNE,32,1.0,2.0,84,0.00,,,0.00,weatherlink.com 1.10,2013-10-18 14:10:00,
2013-10-18 08:25:00,31.8,27.0,32.35,ESE,105,3.0,5.0,83,0.00,,,0.00,weatherlink.com 1.10,2013-10-18 14:25:00,
2013-10-18 08:40:00,32.1,27.0,32.35,ESE,113,0.0,4.0,82,0.00,,,0.00,weatherlink.com 1.10,2013-10-18 14:40:00,
2013-10-18 08:55:00,33.3,28.0,32.36,East,88,3.0,8.0,81,0.00,,,0.00,weatherlink.com 1.10,2013-10-18 14:55:00,
2013-10-18 09:11:00,34.2,28.0,32.36,ENE,60,3.0,8.0,78,0.00,,,0.00,weatherlink.com 1.10,2013-10-18 15:11:00,
2013-10-18 09:26:00,35.0,28.0,32.35,ESE,115,4.0,8.0,76,0.00,,,0.00,weatherlink.com 1.10,2013-10-18 15:26:00,
2013-10-18 09:41:00,35.8,29.0,32.35,SE,140,4.0,9.0,76,0.00,,,0.00,weatherlink.com 1.10,2013-10-18 15:41:00,
2013-10-18 09:56:00,35.6,29.0,32.35,East,97,6.0,10.0,76,0.00,,,0.00,weatherlink.com 1.10,2013-10-18 15:56:00,
2013-10-18 10:11:00,36.0,30.0,32.35,ESE,113,7.0,9.0,78,0.00,,,0.00,weatherlink.com 1.10,2013-10-18 16:11:00,
2013-10-18 10:26:00,36.1,28.0,32.35,ESE,120,5.0,7.0,73,0.00,,,0.00,weatherlink.com 1.10,2013-10-18 16:26:00,
2013-10-18 10:41:00,36.2,28.0,32.34,SSE,161,4.0,9.0,73,0.00,,,0.00,weatherlink.com 1.10,2013-10-18 16:41:00,
2013-10-18 10:56:00,36.3,28.0,32.34,SE,146,3.0,8.0,73,0.00,,,0.00,weatherlink.com 1.10,2013-10-18 16:56:00,
2013-10-18 11:11:00,36.9,29.0,32.33,SE,125,5.0,8.0,74,0.00,,,0.00,weatherlink.com 1.10,2013-10-18 17:11:00,
2013-10-18 11:26:00,37.1,30.0,32.33,ESE,115,4.0,8.0,74,0.00,,,0.00,weatherlink.com 1.10,2013-10-18 17:26:00,
2013-10-18 11:41:00,38.1,31.0,32.32,ESE,115,5.0,8.0,74,0.00,,,0.00,weatherlink.com 1.10,2013-10-18 17:41:00,
2013-10-18 11:56:00,39.7,30.0,32.31,ESE,107,5.0,10.0,68,0.00,,,0.00,weatherlink.com 1.10,2013-10-18 17:56:00,
2013-10-18 12:11:00,40.0,29.0,32.30,SE,144,4.0,10.0,64,0.00,,,0.00,weatherlink.com 1.10,2013-10-18 18:11:00,
2013-10-18 12:26:00,41.0,29.0,32.30,SE,138,6.0,9.0,62,0.00,,,0.00,weatherlink.com 1.10,2013-10-18 18:26:00,
2013-10-18 12:41:00,42.5,29.0,32.29,ESE,105,5.0,8.0,60,0.00,,,0.00,weatherlink.com 1.10,2013-10-18 18:41:00,
2013-10-18 12:56:00,42.1,29.0,32.28,East,85,5.0,9.0,59,0.00,,,0.00,weatherlink.com 1.10,2013-10-18 18:56:00,
2013-10-18 13:11:00,43.0,28.0,32.27,SSE,167,6.0,9.0,55,0.00,,,0.00,weatherlink.com 1.10,2013-10-18 19:11:00,
2013-10-18 13:27:00,43.5,29.0,32.26,SE,144,2.0,9.0,56,0.00,,,0.00,weatherlink.com 1.10,2013-10-18 19:27:00,
2013-10-18 13:42:00,44.9,28.0,32.25,SE,138,6.0,8.0,52,0.00,,,0.00,weatherlink.com 1.10,2013-10-18 19:42:00,
2013-10-18 13:57:00,45.3,27.0,32.24,SW,218,5.0,8.0,50,0.00,,,0.00,weatherlink.com 1.10,2013-10-18 19:57:00,
2013-10-18 14:12:00,46.7,28.0,32.23,SSE,162,2.0,7.0,49,0.00,,,0.00,weatherlink.com 1.10,2013-10-18 20:12:00,
2013-10-18 14:27:00,46.6,25.0,32.22,SE,144,4.0,7.0,43,0.00,,,0.00,weatherlink.com 1.10,2013-10-18 20:27:00,
2013-10-18 14:42:00,47.4,26.0,32.21,SE,126,3.0,8.0,44,0.00,,,0.00,weatherlink.com 1.10,2013-10-18 20:42:00,
2013-10-18 14:57:00,47.4,27.0,32.20,SE,146,7.0,8.0,45,0.00,,,0.00,weatherlink.com 1.10,2013-10-18 20:57:00,
2013-10-18 15:12:00,48.2,26.0,32.19,SSE,149,2.0,9.0,42,0.00,,,0.00,weatherlink.com 1.10,2013-10-18 21:12:00,
2013-10-18 15:27:00,48.9,27.0,32.18,SE,145,6.0,9.0,42,0.00,,,0.00,weatherlink.com 1.10,2013-10-18 21:27:00,
2013-10-18 15:42:00,49.2,27.0,32.18,WSW,257,3.0,7.0,42,0.00,,,0.00,weatherlink.com 1.10,2013-10-18 21:42:00,
2013-10-18 15:57:00,48.6,27.0,32.17,SW,216,0.0,8.0,44,0.00,,,0.00,weatherlink.com 1.10,2013-10-18 21:57:00,
2013-10-18 16:12:00,48.8,27.0,32.17,South,172,3.0,7.0,43,0.00,,,0.00,weatherlink.com 1.10,2013-10-18 22:12:00,
2013-10-18 16:27:00,48.9,28.0,32.16,SW,218,0.0,7.0,44,0.00,,,0.00,weatherlink.com 1.10,2013-10-18 22:27:00,
2013-10-18 16:42:00,49.1,28.0,32.16,WSW,251,7.0,9.0,45,0.00,,,0.00,weatherlink.com 1.10,2013-10-18 22:42:00,
2013-10-18 16:57:00,48.9,29.0,32.15,West,268,4.0,10.0,46,0.00,,,0.00,weatherlink.com 1.10,2013-10-18 22:57:00,
2013-10-18 17:12:00,48.5,30.0,32.15,West,262,8.0,10.0,49,0.00,,,0.00,weatherlink.com 1.10,2013-10-18 23:12:00,
2013-10-18 17:27:00,48.9,31.0,32.14,WSW,252,6.0,10.0,50,0.00,,,0.00,weatherlink.com 1.10,2013-10-18 23:27:00,
2013-10-18 17:42:00,48.4,30.0,32.13,West,262,5.0,8.0,50,0.00,,,0.00,weatherlink.com 1.10,2013-10-18 23:42:00,
2013-10-18 17:57:00,48.1,31.0,32.14,WSW,252,2.0,7.0,51,0.00,,,0.00,weatherlink.com 1.10,2013-10-18 23:57:00,
2013-10-18 18:12:00,48.0,30.0,32.13,West,264,3.0,6.0,51,0.00,,,0.00,weatherlink.com 1.10,2013-10-19 00:12:00,
2013-10-18 18:27:00,47.3,30.0,32.13,NNW,327,3.0,4.0,51,0.00,,,0.00,weatherlink.com 1.10,2013-10-19 00:27:00,
2013-10-18 18:42:00,46.7,27.0,32.13,WNW,284,1.0,4.0,46,0.00,,,0.00,weatherlink.com 1.10,2013-10-19 00:42:00,
2013-10-18 18:57:00,46.6,27.0,32.13,NW,313,4.0,5.0,46,0.00,,,0.00,weatherlink.com 1.10,2013-10-19 00:57:00,
2013-10-18 19:12:00,47.0,26.0,32.13,WNW,289,4.0,10.0,44,0.00,,,0.00,weatherlink.com 1.10,2013-10-19 01:12:00,
2013-10-18 19:27:00,46.8,26.0,32.13,West,281,6.0,10.0,45,0.00,,,0.00,weatherlink.com 1.10,2013-10-19 01:27:00,
2013-10-18 19:42:00,46.7,27.0,32.13,WNW,297,7.0,9.0,46,0.00,,,0.00,weatherlink.com 1.10,2013-10-19 01:42:00,
2013-10-18 19:57:00,46.5,27.0,32.12,NW,313,6.0,15.0,47,0.00,,,0.00,weatherlink.com 1.10,2013-10-19 01:57:00,
2013-10-18 20:12:00,46.0,27.0,32.13,WNW,292,11.0,16.0,48,0.00,,,0.00,weatherlink.com 1.10,2013-10-19 02:12:00,
2013-10-18 20:27:00,45.8,28.0,32.13,NW,311,9.0,13.0,50,0.00,,,0.00,weatherlink.com 1.10,2013-10-19 02:27:00,
2013-10-18 20:42:00,45.4,28.0,32.14,WNW,299,10.0,14.0,51,0.00,,,0.00,weatherlink.com 1.10,2013-10-19 02:42:00,
2013-10-18 20:57:00,45.1,29.0,32.14,WNW,296,10.0,17.0,53,0.00,,,0.00,weatherlink.com 1.10,2013-10-19 02:57:00,
2013-10-18 21:12:00,44.8,29.0,32.14,WNW,286,18.0,22.0,55,0.00,,,0.00,weatherlink.com 1.10,2013-10-19 03:12:00,
2013-10-18 21:27:00,44.5,29.0,32.14,WNW,300,11.0,19.0,56,0.00,,,0.00,weatherlink.com 1.10,2013-10-19 03:27:00,
2013-10-18 21:42:00,44.1,30.0,32.14,NW,312,13.0,16.0,57,0.00,,,0.00,weatherlink.com 1.10,2013-10-19 03:42:00,
2013-10-18 21:57:00,44.1,30.0,32.14,WNW,301,17.0,18.0,59,0.00,,,0.00,weatherlink.com 1.10,2013-10-19 03:57:00,
2013-10-18 22:12:00,43.9,30.0,32.14,WNW,288,9.0,18.0,59,0.00,,,0.00,weatherlink.com 1.10,2013-10-19 04:12:00,
2013-10-18 22:27:00,43.8,30.0,32.15,NW,311,14.0,16.0,59,0.00,,,0.00,weatherlink.com 1.10,2013-10-19 04:27:00,
2013-10-18 22:42:00,43.6,30.0,32.15,NW,307,12.0,16.0,60,0.00,,,0.00,weatherlink.com 1.10,2013-10-19 04:42:00,
2013-10-18 22:57:00,43.1,30.0,32.15,NW,313,10.0,13.0,61,0.00,,,0.00,weatherlink.com 1.10,2013-10-19 04:57:00,
2013-10-18 23:12:00,42.9,30.0,32.14,WNW,300,12.0,17.0,60,0.00,,,0.00,weatherlink.com 1.10,2013-10-19 05:12:00,
2013-10-18 23:27:00,42.9,29.0,32.14,NW,315,10.0,16.0,58,0.00,,,0.00,weatherlink.com 1.10,2013-10-19 05:27:00,
2013-10-18 23:43:00,42.7,29.0,32.15,NW,314,11.0,18.0,58,0.00,,,0.00,weatherlink.com 1.10,2013-10-19 05:43:00,
2013-10-18 23:58:00,42.6,29.0,32.15,WNW,292,7.0,13.0,58,0.00,,,0.00,weatherlink.com 1.10,2013-10-19 05:58:00,